createdAt,value
2022-09-28T00:01:20.475Z,99.90
2022-09-28T00:03:49.508Z,99.90
2022-09-28T00:06:19.777Z,99.90
2022-09-28T00:08:47.119Z,99.90
2022-09-28T00:11:15.552Z,99.90
2022-09-28T00:13:43.958Z,99.90
2022-09-28T00:16:14.276Z,99.90
2022-09-28T00:18:41.912Z,99.90
2022-09-28T00:21:17.394Z,99.90
2022-09-28T00:24:03.834Z,99.90
2022-09-28T00:26:32.637Z,99.90
2022-09-28T00:29:01.319Z,99.90
2022-09-28T00:31:31.871Z,99.90
2022-09-28T00:34:00.537Z,99.90
2022-09-28T00:36:29.314Z,99.90
2022-09-28T00:38:57.418Z,99.90
2022-09-28T00:41:25.767Z,99.90
2022-09-28T00:43:53.763Z,99.90
2022-09-28T00:46:31.541Z,99.90
2022-09-28T00:49:05.288Z,99.90
2022-09-28T00:51:32.956Z,99.90
2022-09-28T00:54:03.746Z,99.90
2022-09-28T00:56:32.603Z,99.90
2022-09-28T00:59:01.304Z,99.90
2022-09-28T01:01:28.641Z,99.90
2022-09-28T01:03:55.630Z,99.90
2022-09-28T01:06:24.609Z,99.90
2022-09-28T01:08:53.927Z,99.90
2022-09-28T01:11:21.130Z,99.90
2022-09-28T01:13:54.124Z,99.90
2022-09-28T01:16:24.065Z,99.90
2022-09-28T01:19:11.991Z,99.90
2022-09-28T01:21:54.442Z,99.90
2022-09-28T01:24:36.352Z,99.90
2022-09-28T01:27:26.715Z,99.90
2022-09-28T01:30:07.770Z,99.90
2022-09-28T01:33:00.350Z,99.90
2022-09-28T01:35:36.696Z,99.90
2022-09-28T01:38:12.057Z,99.90
2022-09-28T01:40:40.717Z,99.90
2022-09-28T01:43:17.024Z,99.90
2022-09-28T01:45:56.467Z,99.90
2022-09-28T01:48:41.999Z,99.90
2022-09-28T01:51:17.933Z,99.90
2022-09-28T01:53:53.306Z,99.90
2022-09-28T01:56:27.636Z,99.90
2022-09-28T01:59:07.940Z,99.90
2022-09-28T02:01:41.732Z,99.90
2022-09-28T02:04:11.862Z,99.90
2022-09-28T02:06:48.727Z,99.90
2022-09-28T02:09:39.235Z,99.90
2022-09-28T02:12:32.766Z,99.90
2022-09-28T02:15:10.696Z,99.90
2022-09-28T02:17:37.871Z,99.90
2022-09-28T02:20:05.360Z,99.90
2022-09-28T02:22:40.561Z,99.90
2022-09-28T02:25:28.363Z,99.90
2022-09-28T02:28:04.777Z,99.90
2022-09-28T02:30:33.685Z,99.90
2022-09-28T02:33:13.498Z,99.90
2022-09-28T02:35:42.563Z,99.90
2022-09-28T02:38:13.989Z,99.90
2022-09-28T02:40:50.807Z,99.90
2022-09-28T02:43:55.225Z,99.90
2022-09-28T02:46:32.885Z,99.90
2022-09-28T02:49:24.176Z,99.90
2022-09-28T02:52:13.727Z,99.90
2022-09-28T02:55:04.950Z,99.90
2022-09-28T02:57:47.080Z,99.90
2022-09-28T03:00:24.158Z,99.90
2022-09-28T03:02:54.069Z,99.90
2022-09-28T03:05:48.332Z,99.90
2022-09-28T03:08:26.412Z,99.90
2022-09-28T03:10:58.498Z,99.90
2022-09-28T03:13:27.168Z,99.90
2022-09-28T03:16:16.416Z,99.90
2022-09-28T03:18:43.823Z,99.90
2022-09-28T03:21:15.246Z,99.90
2022-09-28T03:23:43.043Z,99.90
2022-09-28T03:26:13.341Z,99.90
2022-09-28T03:28:41.018Z,99.90
2022-09-28T03:31:08.076Z,99.90
2022-09-28T03:33:35.063Z,99.90
2022-09-28T03:36:02.283Z,99.90
2022-09-28T03:38:29.222Z,99.90
2022-09-28T03:40:58.128Z,99.90
2022-09-28T03:43:25.906Z,99.90
2022-09-28T03:46:00.759Z,99.90
2022-09-28T03:48:34.054Z,99.90
2022-09-28T03:51:03.868Z,99.90
2022-09-28T03:53:31.000Z,99.90
2022-09-28T03:56:07.010Z,99.90
2022-09-28T03:58:34.522Z,99.90
2022-09-28T04:01:06.739Z,99.90
2022-09-28T04:03:34.010Z,99.90
2022-09-28T04:06:01.466Z,99.90
2022-09-28T04:08:28.367Z,99.90
2022-09-28T04:10:59.826Z,99.90
2022-09-28T04:13:28.222Z,99.90
2022-09-28T04:16:00.324Z,99.90
2022-09-28T04:18:27.988Z,99.90
2022-09-28T04:21:07.654Z,99.90
2022-09-28T04:23:36.229Z,99.90
2022-09-28T04:26:18.899Z,99.90
2022-09-28T04:29:06.747Z,99.90
2022-09-28T04:31:49.841Z,99.90
2022-09-28T04:34:22.432Z,99.90
2022-09-28T04:36:50.117Z,99.90
2022-09-28T04:39:18.339Z,99.90
2022-09-28T04:41:48.623Z,99.90
2022-09-28T04:44:15.957Z,99.90
2022-09-28T04:46:43.663Z,99.90
2022-09-28T04:49:11.190Z,99.90
2022-09-28T04:51:38.191Z,99.90
2022-09-28T04:54:05.117Z,99.90
2022-09-28T04:56:32.004Z,99.90
2022-09-28T04:58:59.026Z,99.90
2022-09-28T05:01:26.017Z,99.90
2022-09-28T05:03:53.281Z,99.90
2022-09-28T05:06:21.134Z,99.90
2022-09-28T05:08:48.132Z,99.90
2022-09-28T05:11:15.523Z,99.90
2022-09-28T05:13:46.015Z,99.90
2022-09-28T05:16:16.100Z,99.90
2022-09-28T05:18:43.295Z,99.90
2022-09-28T05:21:15.063Z,99.90
2022-09-28T05:23:46.462Z,99.90
2022-09-28T05:26:14.126Z,99.90
2022-09-28T05:28:41.055Z,99.90
2022-09-28T05:31:08.291Z,99.90
2022-09-28T05:33:35.405Z,99.90
2022-09-28T05:36:02.693Z,99.90
2022-09-28T05:38:30.542Z,99.90
2022-09-28T05:40:57.680Z,99.90
2022-09-28T05:43:24.739Z,99.90
2022-09-28T05:45:55.652Z,99.90
2022-09-28T05:48:23.393Z,99.90
2022-09-28T05:50:53.692Z,99.90
2022-09-28T05:53:20.819Z,99.90
2022-09-28T05:55:48.065Z,99.90
2022-09-28T05:58:15.509Z,99.90
2022-09-28T06:00:42.576Z,99.90
2022-09-28T06:03:13.201Z,99.90
2022-09-28T06:05:40.907Z,99.90
2022-09-28T06:08:10.496Z,99.90
2022-09-28T06:10:37.948Z,99.90
2022-09-28T06:13:05.227Z,99.90
2022-09-28T06:15:33.979Z,99.90
2022-09-28T06:18:10.345Z,99.90
2022-09-28T06:20:41.314Z,99.90
2022-09-28T06:23:10.041Z,99.90
2022-09-28T06:25:37.620Z,99.90
2022-09-28T06:28:07.312Z,99.90
2022-09-28T06:30:38.166Z,99.90
2022-09-28T06:33:06.795Z,99.90
2022-09-28T06:35:34.096Z,99.90
2022-09-28T06:38:01.833Z,99.90
2022-09-28T06:40:29.196Z,99.90
2022-09-28T06:42:57.205Z,99.90
2022-09-28T06:45:25.498Z,99.90
2022-09-28T06:48:00.722Z,99.90
2022-09-28T06:50:31.123Z,99.90
2022-09-28T06:52:58.991Z,99.90
2022-09-28T06:55:26.969Z,99.90
2022-09-28T06:58:05.474Z,99.90
2022-09-28T07:00:34.947Z,99.90
2022-09-28T07:03:12.375Z,99.90
2022-09-28T07:05:43.535Z,99.90
2022-09-28T07:08:10.995Z,99.90
2022-09-28T07:10:46.261Z,99.90
2022-09-28T07:13:37.716Z,99.90
2022-09-28T07:16:02.004Z,99.90
2022-09-28T07:18:30.023Z,99.90
2022-09-28T07:20:57.565Z,99.90
2022-09-28T07:23:29.867Z,99.90
2022-09-28T07:25:58.313Z,99.90
2022-09-28T07:28:25.617Z,99.90
2022-09-28T07:30:52.949Z,99.90
2022-09-28T07:33:19.899Z,99.90
2022-09-28T07:35:55.342Z,99.90
2022-09-28T07:38:22.727Z,99.90
2022-09-28T07:41:08.684Z,99.90
2022-09-28T07:43:35.626Z,99.90
2022-09-28T07:46:02.694Z,99.90
2022-09-28T07:48:36.022Z,99.90
2022-09-28T07:51:03.176Z,99.90
2022-09-28T07:53:31.059Z,99.90
2022-09-28T07:56:08.794Z,99.90
2022-09-28T07:58:37.463Z,99.90
2022-09-28T08:01:10.855Z,99.90
2022-09-28T08:03:38.898Z,99.90
2022-09-28T08:06:09.894Z,99.90
2022-09-28T08:08:37.195Z,99.90
2022-09-28T08:11:06.805Z,90.20
2022-09-28T08:13:33.770Z,69.70
2022-09-28T08:16:02.178Z,1.00
2022-09-28T08:18:29.366Z,1.00
2022-09-28T08:21:14.802Z,1.00
2022-09-28T08:23:41.770Z,1.00
2022-09-28T08:26:13.291Z,1.00
2022-09-28T08:28:43.341Z,1.00
2022-09-28T08:31:10.358Z,1.00
2022-09-28T08:33:37.376Z,1.00
2022-09-28T08:36:05.263Z,1.00
2022-09-28T08:38:33.770Z,1.00
2022-09-28T08:41:19.806Z,99.90
2022-09-28T08:43:55.892Z,1.00
2022-09-28T08:46:27.337Z,1.00
2022-09-28T08:49:13.787Z,1.00
2022-09-28T08:52:23.658Z,1.00
2022-09-28T08:54:54.706Z,1.00
2022-09-28T08:57:29.490Z,1.00
2022-09-28T08:59:59.810Z,1.00
2022-09-28T09:02:35.147Z,99.90
2022-09-28T09:05:07.446Z,55.60
2022-09-28T09:07:45.975Z,99.90
2022-09-28T09:10:37.109Z,1.00
2022-09-28T09:13:26.571Z,99.90
2022-09-28T09:15:56.466Z,1.00
2022-09-28T09:18:47.287Z,1.00
2022-09-28T09:21:38.146Z,99.90
2022-09-28T09:24:27.509Z,1.00
2022-09-28T09:27:16.546Z,1.00
2022-09-28T09:29:58.754Z,1.00
2022-09-28T09:32:25.595Z,1.00
2022-09-28T09:35:47.041Z,99.90
2022-09-28T09:38:32.187Z,1.00
2022-09-28T09:44:14.087Z,1.00
2022-09-28T09:47:04.759Z,1.00
2022-09-28T09:49:40.103Z,1.00
2022-09-28T09:52:27.366Z,1.00
2022-09-28T09:55:02.593Z,1.00
2022-09-28T09:57:42.793Z,1.00
2022-09-28T10:00:16.860Z,1.00
2022-09-28T10:02:47.877Z,99.90
2022-09-28T10:05:19.192Z,99.90
2022-09-28T10:07:55.996Z,1.00
2022-09-28T10:10:36.020Z,1.00
2022-09-28T10:13:04.270Z,99.90
2022-09-28T10:15:35.518Z,74.90
2022-09-28T10:18:09.626Z,99.90
2022-09-28T10:20:40.136Z,99.90
2022-09-28T10:23:29.367Z,47.00
2022-09-28T10:26:04.171Z,1.00
2022-09-28T10:28:45.441Z,1.00
2022-09-28T10:31:35.515Z,1.00
2022-09-28T10:34:03.400Z,1.00
2022-09-28T10:36:38.280Z,1.00
2022-09-28T10:39:06.314Z,41.30
2022-09-28T10:41:33.425Z,1.00
2022-09-28T10:44:06.781Z,99.90
2022-09-28T10:46:35.344Z,60.40
2022-09-28T10:49:13.590Z,5.70
2022-09-28T10:51:52.161Z,1.00
2022-09-28T10:54:22.247Z,1.00
2022-09-28T10:56:50.627Z,1.00
2022-09-28T10:59:29.648Z,1.00
2022-09-28T11:02:20.762Z,1.00
2022-09-28T11:04:55.972Z,1.00
2022-09-28T11:07:31.958Z,1.00
2022-09-28T11:10:01.012Z,1.00
2022-09-28T11:12:42.312Z,1.00
2022-09-28T11:15:18.901Z,1.00
2022-09-28T11:17:45.880Z,1.00
2022-09-28T11:20:27.952Z,27.30
2022-09-28T11:23:20.647Z,66.50
2022-09-28T11:26:18.956Z,99.90
2022-09-28T11:28:51.837Z,99.90
2022-09-28T11:31:28.217Z,99.90
2022-09-28T11:34:15.291Z,99.90
2022-09-28T11:37:02.316Z,99.90
2022-09-28T11:39:40.968Z,99.90
2022-09-28T11:42:20.676Z,99.90
2022-09-28T11:44:48.951Z,1.00
2022-09-28T11:47:27.955Z,99.90
2022-09-28T11:50:06.588Z,99.90
2022-09-28T11:52:44.080Z,99.90
2022-09-28T11:55:36.716Z,99.90
2022-09-28T11:58:12.167Z,99.90
2022-09-28T12:00:49.893Z,99.90
2022-09-28T12:03:21.907Z,99.90
2022-09-28T12:06:06.587Z,99.90
2022-09-28T12:08:40.385Z,99.90
2022-09-28T12:11:15.691Z,99.90
2022-09-28T12:13:49.540Z,99.90
2022-09-28T12:16:53.700Z,99.90
2022-09-28T12:19:40.173Z,92.70
2022-09-28T12:22:37.532Z,97.70
2022-09-28T12:25:09.866Z,99.90
2022-09-28T12:27:53.705Z,99.90
2022-09-28T12:30:22.694Z,99.90
2022-09-28T12:33:12.251Z,99.90
2022-09-28T12:36:10.042Z,97.30
2022-09-28T12:39:19.025Z,69.50
2022-09-28T12:42:17.852Z,23.40
2022-09-28T12:44:52.141Z,1.00
2022-09-28T12:47:25.718Z,9.50
2022-09-28T12:50:44.005Z,11.60
2022-09-28T12:53:26.538Z,22.60
2022-09-28T12:56:11.703Z,28.20
2022-09-28T12:59:01.204Z,10.60
2022-09-28T13:01:48.473Z,1.00
2022-09-28T13:04:35.259Z,1.00
2022-09-28T13:07:28.930Z,1.00
2022-09-28T13:10:26.069Z,1.00
2022-09-28T13:13:08.227Z,1.00
2022-09-28T13:16:17.714Z,1.00
2022-09-28T13:19:09.318Z,1.00
2022-09-28T13:21:41.028Z,1.00
2022-09-28T13:24:31.571Z,1.00
2022-09-28T13:27:05.490Z,1.00
2022-09-28T13:29:34.642Z,1.00
2022-09-28T13:32:03.306Z,1.00
2022-09-28T13:34:35.448Z,1.00
2022-09-28T13:37:24.344Z,1.00
2022-09-28T13:39:53.375Z,1.00
2022-09-28T13:42:37.759Z,1.00
2022-09-28T13:45:22.878Z,1.00
2022-09-28T13:47:49.721Z,1.00
2022-09-28T13:50:34.541Z,1.00
2022-09-28T13:53:55.716Z,1.00
2022-09-28T13:56:40.827Z,1.00
2022-09-28T13:59:44.633Z,1.00
2022-09-28T14:02:17.679Z,1.00
2022-09-28T14:05:04.470Z,1.00
2022-09-28T14:07:34.504Z,1.00
2022-09-28T14:10:23.682Z,1.00
2022-09-28T14:12:52.300Z,1.00
2022-09-28T14:15:39.459Z,1.00
2022-09-28T14:18:17.438Z,1.00
2022-09-28T14:21:00.811Z,1.00
2022-09-28T14:24:01.127Z,1.00
2022-09-28T14:26:47.655Z,1.00
2022-09-28T14:29:31.429Z,1.00
2022-09-28T14:32:22.720Z,1.00
2022-09-28T14:34:58.303Z,1.00
2022-09-28T14:37:49.655Z,1.00
2022-09-28T14:40:42.889Z,1.00
2022-09-28T14:43:48.118Z,1.00
2022-09-28T14:46:15.203Z,1.00
2022-09-28T14:48:51.226Z,1.00
2022-09-28T14:51:27.101Z,1.00
2022-09-28T14:54:01.163Z,2.10
2022-09-28T14:56:40.167Z,19.20
2022-09-28T14:59:12.193Z,28.20
2022-09-28T15:01:39.577Z,39.30
2022-09-28T15:04:11.754Z,45.40
2022-09-28T15:06:46.876Z,33.00
2022-09-28T15:09:29.145Z,23.30
2022-09-28T15:12:29.589Z,27.40
2022-09-28T15:14:59.748Z,16.90
2022-09-28T15:17:32.764Z,27.80
2022-09-28T15:20:11.065Z,35.30
2022-09-28T15:22:44.987Z,46.10
2022-09-28T15:25:19.947Z,33.70
2022-09-28T15:27:53.001Z,44.90
2022-09-28T15:30:29.864Z,47.30
2022-09-28T15:33:18.352Z,49.10
2022-09-28T15:35:51.356Z,77.90
2022-09-28T15:38:18.534Z,44.00
2022-09-28T15:40:47.663Z,58.80
2022-09-28T15:43:32.874Z,55.20
2022-09-28T15:46:16.511Z,64.00
2022-09-28T15:48:55.728Z,54.60
2022-09-28T15:51:24.586Z,74.80
2022-09-28T15:53:56.201Z,96.50
2022-09-28T15:56:23.157Z,74.90
2022-09-28T15:59:11.739Z,89.50
2022-09-28T16:01:40.089Z,85.10
2022-09-28T16:04:37.541Z,93.50
2022-09-28T16:07:13.404Z,99.90
2022-09-28T16:10:01.886Z,99.90
2022-09-28T16:12:37.787Z,91.90
2022-09-28T16:15:11.561Z,84.60
2022-09-28T16:17:38.721Z,89.60
2022-09-28T16:20:50.272Z,99.00
2022-09-28T16:23:17.139Z,93.00
2022-09-28T16:26:10.660Z,87.60
2022-09-28T16:28:40.854Z,99.30
2022-09-28T16:31:27.413Z,99.90
2022-09-28T16:34:11.683Z,99.90
2022-09-28T16:36:47.444Z,99.90
2022-09-28T16:39:16.554Z,99.90
2022-09-28T16:41:55.759Z,99.90
2022-09-28T16:44:28.063Z,99.90
2022-09-28T16:46:57.423Z,99.90
2022-09-28T16:49:25.652Z,99.90
2022-09-28T16:51:53.014Z,99.90
2022-09-28T16:54:43.386Z,99.90
2022-09-28T16:57:12.945Z,99.90
2022-09-28T16:59:39.919Z,99.90
2022-09-28T17:02:46.372Z,99.90
2022-09-28T17:05:16.021Z,1.00
2022-09-28T17:07:44.444Z,1.00
2022-09-28T17:10:45.155Z,1.00
2022-09-28T17:13:23.525Z,1.00
2022-09-28T17:15:50.563Z,1.00
2022-09-28T17:18:18.965Z,1.00
2022-09-28T17:20:49.517Z,1.00
2022-09-28T17:23:17.671Z,1.00
2022-09-28T17:25:45.494Z,1.00
2022-09-28T17:28:17.729Z,1.00
2022-09-28T17:30:44.774Z,1.00
2022-09-28T17:33:11.735Z,1.00
2022-09-28T17:35:39.791Z,1.00
2022-09-28T17:38:06.989Z,1.00
2022-09-28T17:40:34.907Z,99.90
2022-09-28T17:43:03.680Z,99.90
2022-09-28T17:45:31.488Z,99.90
2022-09-28T17:47:59.179Z,99.90
2022-09-28T17:50:29.856Z,1.00
2022-09-28T17:52:58.159Z,1.00
2022-09-28T17:55:31.809Z,99.90
2022-09-28T17:58:01.378Z,1.00
2022-09-28T18:00:28.921Z,9.60
2022-09-28T18:02:57.238Z,1.00
2022-09-28T18:05:26.382Z,1.00
2022-09-28T18:07:53.397Z,1.00
2022-09-28T18:10:23.305Z,1.00
2022-09-28T18:12:51.127Z,99.90
2022-09-28T18:15:19.271Z,99.90
2022-09-28T18:17:46.349Z,99.90
2022-09-28T18:20:13.830Z,1.00
2022-09-28T18:22:40.827Z,1.00
2022-09-28T18:25:08.221Z,1.00
2022-09-28T18:27:35.202Z,99.90
2022-09-28T18:30:03.518Z,1.00
2022-09-28T18:32:30.546Z,1.00
2022-09-28T18:34:57.445Z,1.00
2022-09-28T18:37:24.669Z,99.90
2022-09-28T18:39:52.480Z,1.00
2022-09-28T18:42:20.726Z,1.00
2022-09-28T18:44:47.650Z,1.00
2022-09-28T18:47:15.151Z,1.00
2022-09-28T18:49:46.440Z,96.60
2022-09-28T18:52:13.680Z,1.00
2022-09-28T18:54:40.971Z,1.00
2022-09-28T18:57:07.924Z,99.90
2022-09-28T18:59:34.886Z,1.00
2022-09-28T19:02:02.050Z,99.90
2022-09-28T19:04:29.120Z,1.00
2022-09-28T19:06:56.118Z,1.00
2022-09-28T19:09:24.832Z,53.80
2022-09-28T19:11:51.999Z,99.90
2022-09-28T19:14:19.143Z,99.90
2022-09-28T19:16:46.275Z,99.90
2022-09-28T19:19:15.602Z,1.00
2022-09-28T19:21:45.890Z,1.00
2022-09-28T19:24:14.915Z,1.00
2022-09-28T19:26:42.773Z,1.00
2022-09-28T19:29:10.698Z,1.00
2022-09-28T19:31:38.306Z,1.00
2022-09-28T19:34:06.744Z,1.00
2022-09-28T19:36:35.291Z,1.00
2022-09-28T19:39:05.203Z,1.00
2022-09-28T19:41:43.978Z,1.00
2022-09-28T19:44:27.438Z,1.00
2022-09-28T19:47:04.247Z,1.00
2022-09-28T19:49:36.158Z,1.00
2022-09-28T19:52:13.360Z,1.00
2022-09-28T19:54:58.411Z,1.00
2022-09-28T19:57:27.917Z,1.00
2022-09-28T19:59:59.450Z,1.00
2022-09-28T20:02:29.431Z,1.00
2022-09-28T20:04:56.439Z,1.00
2022-09-28T20:07:23.371Z,1.00
2022-09-28T20:09:50.757Z,1.00
2022-09-28T20:12:17.732Z,1.00
2022-09-28T20:14:44.670Z,1.00
2022-09-28T20:17:11.677Z,1.00
2022-09-28T20:19:38.661Z,1.00
2022-09-28T20:22:05.584Z,1.00
2022-09-28T20:24:33.042Z,1.00
2022-09-28T20:27:01.489Z,1.00
2022-09-28T20:29:28.955Z,1.00
2022-09-28T20:31:56.791Z,1.00
2022-09-28T20:34:23.743Z,1.00
2022-09-28T20:36:50.682Z,1.00
2022-09-28T20:39:17.688Z,1.00
2022-09-28T20:41:46.132Z,1.00
2022-09-28T20:44:13.269Z,1.00
2022-09-28T20:46:40.391Z,1.00
2022-09-28T20:49:07.864Z,1.00
2022-09-28T20:51:35.030Z,1.00
2022-09-28T20:54:01.947Z,1.00
2022-09-28T20:56:38.868Z,1.00
2022-09-28T20:59:11.772Z,1.00
2022-09-28T21:01:39.345Z,1.00
2022-09-28T21:04:07.789Z,1.00
2022-09-28T21:06:40.301Z,1.00
2022-09-28T21:09:11.218Z,1.00
2022-09-28T21:11:39.922Z,1.00
2022-09-28T21:14:08.216Z,1.00
2022-09-28T21:16:36.057Z,1.00
2022-09-28T21:19:03.942Z,1.00
2022-09-28T21:21:31.238Z,1.00
2022-09-28T21:23:59.251Z,1.00
2022-09-28T21:26:28.301Z,1.00
2022-09-28T21:29:03.847Z,1.00
2022-09-28T21:31:39.695Z,1.00
2022-09-28T21:34:08.473Z,1.00
2022-09-28T21:36:35.479Z,1.00
2022-09-28T21:39:04.960Z,1.00
2022-09-28T21:41:34.053Z,1.00
2022-09-28T21:44:01.069Z,1.00
2022-09-28T21:46:34.130Z,1.00
2022-09-28T21:49:09.061Z,1.00
2022-09-28T21:51:36.461Z,1.00
2022-09-28T21:54:03.523Z,1.00
2022-09-28T21:56:30.555Z,1.00
2022-09-28T21:58:57.564Z,1.00
2022-09-28T22:01:25.745Z,1.00
2022-09-28T22:03:56.728Z,1.00
2022-09-28T22:06:28.085Z,1.00
2022-09-28T22:08:55.289Z,1.00
2022-09-28T22:11:24.663Z,1.00
2022-09-28T22:13:54.683Z,1.00
2022-09-28T22:16:23.957Z,1.00
2022-09-28T22:18:51.167Z,1.00
2022-09-28T22:21:21.561Z,1.50
2022-09-28T22:23:49.919Z,4.60
2022-09-28T22:26:26.170Z,13.40
2022-09-28T22:28:55.322Z,30.80
2022-09-28T22:31:25.661Z,28.90
2022-09-28T22:33:53.010Z,20.10
2022-09-28T22:36:20.221Z,29.90
2022-09-28T22:38:48.127Z,32.80
2022-09-28T22:41:17.762Z,27.10
2022-09-28T22:43:44.950Z,32.40
2022-09-28T22:46:17.425Z,40.40
2022-09-28T22:48:55.206Z,46.60
2022-09-28T22:51:23.453Z,61.30
2022-09-28T22:53:50.742Z,61.70
2022-09-28T22:56:19.204Z,62.90
2022-09-28T22:58:46.902Z,68.60
2022-09-28T23:01:31.662Z,89.70
2022-09-28T23:03:59.586Z,81.60
2022-09-28T23:06:29.095Z,82.00
2022-09-28T23:08:56.530Z,68.20
2022-09-28T23:11:23.801Z,65.20
2022-09-28T23:13:52.491Z,65.70
2022-09-28T23:16:20.138Z,67.10
2022-09-28T23:18:48.987Z,53.50
2022-09-28T23:21:18.584Z,47.00
2022-09-28T23:23:46.830Z,58.70
2022-09-28T23:26:18.995Z,77.30
2022-09-28T23:28:46.535Z,86.30
2022-09-28T23:31:25.408Z,91.50
2022-09-28T23:33:56.586Z,93.90
2022-09-28T23:36:23.776Z,99.90
2022-09-28T23:38:50.708Z,99.90
2022-09-28T23:41:17.667Z,99.90
2022-09-28T23:43:44.649Z,99.90
2022-09-28T23:46:11.657Z,99.90
2022-09-28T23:48:39.821Z,99.90
2022-09-28T23:51:07.940Z,99.90
2022-09-28T23:53:35.153Z,99.90
2022-09-28T23:56:02.331Z,99.90
2022-09-28T23:58:29.261Z,99.90
